createdAt,value
2023-02-17T00:02:42.649Z,6.40
2023-02-17T00:05:48.389Z,6.40
2023-02-17T00:08:54.634Z,6.60
2023-02-17T00:11:59.183Z,6.60
2023-02-17T00:15:03.721Z,6.60
2023-02-17T00:18:08.280Z,6.50
2023-02-17T00:21:21.231Z,6.50
2023-02-17T00:24:28.343Z,6.60
2023-02-17T00:27:32.730Z,6.60
2023-02-17T00:30:39.251Z,6.50
2023-02-17T00:33:43.634Z,6.60
2023-02-17T00:36:48.088Z,6.60
2023-02-17T00:39:52.602Z,6.50
2023-02-17T00:42:56.908Z,6.50
2023-02-17T00:46:04.406Z,6.60
2023-02-17T00:49:14.032Z,6.60
2023-02-17T00:52:20.077Z,6.50
2023-02-17T00:55:24.492Z,6.60
2023-02-17T00:58:30.246Z,6.50
2023-02-17T01:01:35.015Z,6.50
2023-02-17T01:04:40.189Z,6.60
2023-02-17T01:07:44.539Z,6.50
2023-02-17T01:10:51.125Z,6.60
2023-02-17T01:13:56.225Z,6.60
2023-02-17T01:17:00.207Z,6.70
2023-02-17T01:20:06.781Z,6.80
2023-02-17T01:23:12.622Z,6.70
2023-02-17T01:26:19.410Z,6.80
2023-02-17T01:29:23.714Z,6.70
2023-02-17T01:32:28.258Z,6.80
2023-02-17T01:35:34.304Z,6.90
2023-02-17T01:38:38.970Z,6.90
2023-02-17T01:41:44.231Z,6.80
2023-02-17T01:45:28.050Z,7.00
2023-02-17T01:48:38.107Z,7.10
2023-02-17T01:51:44.839Z,7.20
2023-02-17T01:54:59.754Z,7.00
2023-02-17T01:58:08.736Z,7.30
2023-02-17T02:01:13.628Z,7.30
2023-02-17T02:04:20.625Z,7.10
2023-02-17T02:07:37.705Z,7.40
2023-02-17T02:10:41.786Z,7.20
2023-02-17T02:13:46.363Z,7.40
2023-02-17T02:17:08.525Z,7.40
2023-02-17T02:20:51.978Z,7.50
2023-02-17T02:24:32.458Z,7.50
2023-02-17T02:27:48.364Z,7.50
2023-02-17T02:31:18.415Z,7.50
2023-02-17T02:34:32.274Z,7.60
2023-02-17T02:37:43.048Z,7.60
2023-02-17T02:40:53.933Z,7.50
2023-02-17T02:43:58.342Z,7.40
2023-02-17T02:47:06.119Z,7.40
2023-02-17T02:50:17.628Z,7.50
2023-02-17T02:53:43.517Z,7.50
2023-02-17T02:57:03.894Z,7.70
2023-02-17T03:00:29.836Z,7.50
2023-02-17T03:04:09.070Z,7.70
2023-02-17T03:07:28.434Z,7.80
2023-02-17T03:10:32.868Z,7.70
2023-02-17T03:13:39.494Z,7.80
2023-02-17T03:16:46.663Z,7.80
2023-02-17T03:19:51.238Z,7.70
2023-02-17T03:22:56.692Z,7.80
2023-02-17T03:26:02.749Z,7.70
2023-02-17T03:29:07.278Z,7.90
2023-02-17T03:32:12.002Z,7.70
2023-02-17T03:35:16.407Z,7.90
2023-02-17T03:38:20.930Z,7.90
2023-02-17T03:41:26.150Z,7.70
2023-02-17T03:44:30.761Z,7.90
2023-02-17T03:47:35.051Z,7.80
2023-02-17T03:50:39.205Z,7.80
2023-02-17T03:53:44.351Z,7.70
2023-02-17T03:56:48.665Z,8.00
2023-02-17T03:59:53.222Z,7.70
2023-02-17T04:02:57.778Z,7.80
2023-02-17T04:06:02.822Z,7.90
2023-02-17T04:09:06.986Z,7.80
2023-02-17T04:12:11.279Z,8.00
2023-02-17T04:15:15.791Z,7.80
2023-02-17T04:18:21.184Z,7.80
2023-02-17T04:21:26.117Z,7.90
2023-02-17T04:24:30.517Z,7.90
2023-02-17T04:27:34.743Z,7.90
2023-02-17T04:30:39.461Z,7.90
2023-02-17T04:33:44.356Z,8.00
2023-02-17T04:36:48.759Z,7.80
2023-02-17T04:39:53.187Z,8.10
2023-02-17T04:42:57.536Z,8.10
2023-02-17T04:46:02.033Z,8.20
2023-02-17T04:49:06.585Z,7.90
2023-02-17T04:52:11.052Z,8.10
2023-02-17T04:55:15.695Z,8.00
2023-02-17T04:58:20.611Z,8.10
2023-02-17T05:01:24.914Z,8.00
2023-02-17T05:04:29.399Z,8.00
2023-02-17T05:07:34.334Z,8.20
2023-02-17T05:10:39.002Z,8.30
2023-02-17T05:13:43.086Z,8.30
2023-02-17T05:16:47.262Z,8.20
2023-02-17T05:19:51.757Z,8.30
2023-02-17T05:22:56.037Z,8.40
2023-02-17T05:26:00.469Z,8.40
2023-02-17T05:29:04.971Z,8.30
2023-02-17T05:32:09.475Z,8.30
2023-02-17T05:35:13.709Z,8.20
2023-02-17T05:38:18.137Z,8.40
2023-02-17T05:41:22.602Z,8.30
2023-02-17T05:44:27.348Z,8.50
2023-02-17T05:47:31.749Z,8.40
2023-02-17T05:50:36.076Z,8.40
2023-02-17T05:53:40.507Z,8.30
2023-02-17T05:56:45.182Z,8.40
2023-02-17T05:59:49.489Z,8.30
2023-02-17T06:02:53.887Z,8.60
2023-02-17T06:05:58.360Z,8.50
2023-02-17T06:09:03.117Z,8.50
2023-02-17T06:12:07.774Z,8.50
2023-02-17T06:15:12.386Z,8.70
2023-02-17T06:18:17.029Z,8.70
2023-02-17T06:21:21.547Z,8.80
2023-02-17T06:24:26.011Z,8.60
2023-02-17T06:27:30.438Z,8.60
2023-02-17T06:30:35.023Z,8.70
2023-02-17T06:33:39.538Z,8.70
2023-02-17T06:36:44.203Z,8.60
2023-02-17T06:39:48.640Z,8.70
2023-02-17T06:42:53.089Z,8.90
2023-02-17T06:45:57.632Z,8.80
2023-02-17T06:49:02.125Z,8.90
2023-02-17T06:52:06.865Z,8.70
2023-02-17T06:55:11.221Z,9.00
2023-02-17T06:58:15.753Z,8.80
2023-02-17T07:01:23.165Z,8.80
2023-02-17T07:04:28.068Z,8.80
2023-02-17T07:07:32.361Z,9.00
2023-02-17T07:10:37.802Z,9.00
2023-02-17T07:13:42.797Z,9.10
2023-02-17T07:16:47.210Z,9.00
2023-02-17T07:19:51.682Z,9.10
2023-02-17T07:22:56.136Z,9.00
2023-02-17T07:26:09.682Z,9.10
2023-02-17T07:29:14.086Z,8.90
2023-02-17T07:32:18.379Z,8.90
2023-02-17T07:35:22.686Z,9.10
2023-02-17T07:38:26.766Z,9.00
2023-02-17T07:41:33.624Z,9.00
2023-02-17T07:44:45.779Z,9.00
2023-02-17T07:47:50.246Z,9.10
2023-02-17T07:50:54.780Z,9.10
2023-02-17T07:53:59.257Z,9.20
2023-02-17T07:57:03.832Z,9.00
2023-02-17T08:00:10.830Z,9.20
2023-02-17T08:03:18.640Z,9.20
2023-02-17T08:06:25.407Z,9.20
2023-02-17T08:09:48.286Z,9.20
2023-02-17T08:13:07.668Z,9.30
2023-02-17T08:16:12.168Z,9.40
2023-02-17T08:19:17.104Z,9.30
2023-02-17T08:22:21.763Z,9.40
2023-02-17T08:25:27.056Z,9.50
2023-02-17T08:28:32.582Z,9.30
2023-02-17T08:31:38.588Z,9.40
2023-02-17T08:34:43.409Z,9.50
2023-02-17T08:37:48.955Z,9.50
2023-02-17T08:40:53.448Z,9.30
2023-02-17T08:43:59.711Z,9.30
2023-02-17T08:47:06.013Z,9.30
2023-02-17T08:50:16.472Z,9.20
2023-02-17T08:53:20.916Z,9.30
2023-02-17T08:56:26.946Z,9.20
2023-02-17T08:59:31.496Z,9.20
2023-02-17T09:02:35.821Z,9.50
2023-02-17T09:05:40.223Z,9.40
2023-02-17T09:08:45.181Z,9.30
2023-02-17T09:11:49.999Z,9.50
2023-02-17T09:14:54.473Z,9.50
2023-02-17T09:17:59.094Z,9.30
2023-02-17T09:21:12.216Z,9.50
2023-02-17T09:24:17.552Z,9.50
2023-02-17T09:27:21.696Z,9.50
2023-02-17T09:30:26.280Z,9.50
2023-02-17T09:33:31.105Z,9.50
2023-02-17T09:36:38.473Z,9.30
2023-02-17T09:39:43.676Z,9.40
2023-02-17T09:42:48.263Z,9.50
2023-02-17T09:46:06.541Z,9.40
2023-02-17T09:49:25.782Z,9.40
2023-02-17T09:52:42.530Z,9.50
2023-02-17T09:55:51.393Z,9.40
2023-02-17T09:58:59.559Z,9.40
2023-02-17T10:02:08.677Z,9.50
2023-02-17T10:05:16.638Z,9.40
2023-02-17T10:08:28.380Z,9.30
2023-02-17T10:11:39.323Z,9.60
2023-02-17T10:14:51.759Z,9.50
2023-02-17T10:18:05.562Z,9.60
2023-02-17T10:21:22.142Z,9.60
2023-02-17T10:24:26.623Z,9.60
2023-02-17T10:27:42.577Z,9.70
2023-02-17T10:31:05.251Z,10.00
2023-02-17T10:34:32.736Z,10.00
2023-02-17T10:37:54.768Z,10.00
2023-02-17T10:41:01.816Z,10.10
2023-02-17T10:44:11.855Z,10.10
2023-02-17T10:47:17.384Z,10.20
2023-02-17T10:50:23.872Z,10.10
2023-02-17T10:53:39.652Z,10.10
2023-02-17T10:56:52.013Z,10.00
2023-02-17T10:59:56.965Z,10.00
2023-02-17T11:03:01.471Z,9.90
2023-02-17T11:06:16.318Z,9.80
2023-02-17T11:09:29.734Z,9.90
2023-02-17T11:12:42.585Z,9.90
2023-02-17T11:15:49.823Z,9.70
2023-02-17T11:18:57.244Z,9.50
2023-02-17T11:22:27.609Z,9.70
2023-02-17T11:25:37.951Z,9.60
2023-02-17T11:28:49.816Z,9.70
2023-02-17T11:32:15.216Z,9.30
2023-02-17T11:35:41.947Z,9.90
2023-02-17T11:38:47.754Z,9.50
2023-02-17T11:41:52.268Z,9.30
2023-02-17T11:44:59.544Z,9.80
2023-02-17T11:48:12.011Z,9.70
2023-02-17T11:51:31.465Z,9.40
2023-02-17T11:54:54.498Z,9.00
2023-02-17T11:58:14.396Z,8.90
2023-02-17T12:01:29.864Z,8.90
2023-02-17T12:05:18.058Z,9.00
2023-02-17T12:08:47.562Z,9.30
2023-02-17T12:12:03.170Z,8.80
2023-02-17T12:15:39.603Z,9.00
2023-02-17T12:19:16.228Z,8.70
2023-02-17T12:22:24.607Z,8.40
2023-02-17T12:25:52.449Z,8.40
2023-02-17T12:29:02.364Z,8.70
2023-02-17T12:32:15.934Z,8.30
2023-02-17T12:35:28.587Z,8.70
2023-02-17T12:38:37.073Z,8.20
2023-02-17T12:41:48.340Z,8.70
2023-02-17T12:45:10.646Z,8.50
2023-02-17T12:48:26.032Z,8.70
2023-02-17T12:52:00.481Z,8.40
2023-02-17T12:55:21.269Z,8.40
2023-02-17T12:58:28.864Z,8.40
2023-02-17T13:01:33.568Z,8.60
2023-02-17T13:04:39.217Z,9.20
2023-02-17T13:07:53.096Z,8.70
2023-02-17T13:11:31.011Z,9.30
2023-02-17T13:14:46.287Z,8.50
2023-02-17T13:18:26.858Z,8.60
2023-02-17T13:21:34.782Z,9.10
2023-02-17T13:24:54.676Z,8.80
2023-02-17T13:28:01.777Z,9.40
2023-02-17T13:31:19.550Z,9.00
2023-02-17T13:34:28.391Z,9.60
2023-02-17T13:37:32.652Z,8.80
2023-02-17T13:40:41.921Z,8.90
2023-02-17T13:43:46.253Z,8.80
2023-02-17T13:46:51.303Z,8.90
2023-02-17T13:49:57.835Z,8.80
2023-02-17T13:53:21.446Z,9.40
2023-02-17T13:56:30.563Z,9.00
2023-02-17T13:59:37.244Z,9.70
2023-02-17T14:02:50.945Z,9.90
2023-02-17T14:05:58.130Z,9.70
2023-02-17T14:09:19.685Z,9.60
2023-02-17T14:12:25.938Z,9.70
2023-02-17T14:15:30.766Z,10.10
2023-02-17T14:18:38.889Z,9.70
2023-02-17T14:21:45.863Z,10.00
2023-02-17T14:25:11.641Z,9.80
2023-02-17T14:28:25.372Z,9.70
2023-02-17T14:31:29.980Z,10.30
2023-02-17T14:34:36.457Z,9.70
2023-02-17T14:37:42.194Z,9.80
2023-02-17T14:40:46.695Z,9.50
2023-02-17T14:43:51.256Z,9.50
2023-02-17T14:46:55.909Z,9.30
2023-02-17T14:50:00.194Z,9.30
2023-02-17T14:53:10.128Z,9.30
2023-02-17T14:56:31.903Z,9.30
2023-02-17T14:59:35.917Z,9.30
2023-02-17T15:02:40.387Z,9.00
2023-02-17T15:05:45.108Z,9.00
2023-02-17T15:08:50.383Z,8.90
2023-02-17T15:11:56.771Z,8.60
2023-02-17T15:15:01.156Z,8.40
2023-02-17T15:18:05.423Z,8.20
2023-02-17T15:21:29.745Z,8.10
2023-02-17T15:24:35.027Z,8.10
2023-02-17T15:27:39.080Z,8.20
2023-02-17T15:30:51.337Z,8.30
2023-02-17T15:33:58.225Z,8.20
2023-02-17T15:37:02.705Z,8.50
2023-02-17T15:40:07.544Z,8.70
2023-02-17T15:43:19.434Z,8.40
2023-02-17T15:46:31.017Z,8.30
2023-02-17T15:49:35.393Z,8.20
2023-02-17T15:52:39.821Z,8.30
2023-02-17T15:55:45.074Z,8.20
2023-02-17T15:58:50.614Z,8.20
2023-02-17T16:02:01.325Z,8.30
2023-02-17T16:05:06.170Z,8.10
2023-02-17T16:08:10.746Z,8.40
2023-02-17T16:11:16.452Z,8.30
2023-02-17T16:14:36.579Z,8.20
2023-02-17T16:17:41.408Z,8.10
2023-02-17T16:20:45.678Z,8.30
2023-02-17T16:23:50.212Z,8.10
2023-02-17T16:26:54.828Z,8.10
2023-02-17T16:30:03.335Z,8.10
2023-02-17T16:33:12.181Z,8.10
2023-02-17T16:36:19.724Z,8.00
2023-02-17T16:39:24.441Z,7.90
2023-02-17T16:42:28.883Z,7.90
2023-02-17T16:45:34.253Z,8.20
2023-02-17T16:48:43.200Z,8.00
2023-02-17T16:51:47.986Z,7.90
2023-02-17T16:54:54.602Z,7.90
2023-02-17T16:57:59.190Z,7.90
2023-02-17T17:01:04.103Z,7.70
2023-02-17T17:04:12.034Z,7.80
2023-02-17T17:07:17.123Z,7.90
2023-02-17T17:10:23.391Z,7.90
2023-02-17T17:13:28.208Z,7.90
2023-02-17T17:16:43.847Z,7.90
2023-02-17T17:19:48.819Z,8.00
2023-02-17T17:22:53.279Z,7.90
2023-02-17T17:26:01.266Z,7.80
2023-02-17T17:29:07.181Z,7.70
2023-02-17T17:32:14.850Z,7.70
2023-02-17T17:35:21.394Z,7.70
2023-02-17T17:38:33.839Z,7.50
2023-02-17T17:41:47.623Z,7.60
2023-02-17T17:44:56.308Z,7.50
2023-02-17T17:48:00.580Z,7.50
2023-02-17T17:51:05.307Z,7.50
2023-02-17T17:54:10.068Z,7.40
2023-02-17T17:57:15.478Z,7.40
2023-02-17T18:00:20.396Z,7.30
2023-02-17T18:03:25.031Z,7.40
2023-02-17T18:06:33.929Z,7.20
2023-02-17T18:09:39.200Z,7.20
2023-02-17T18:12:44.782Z,7.20
2023-02-17T18:15:49.985Z,7.10
2023-02-17T18:18:57.366Z,7.20
2023-02-17T18:22:01.910Z,7.30
2023-02-17T18:25:07.346Z,7.50
2023-02-17T18:28:12.629Z,7.30
2023-02-17T18:31:17.974Z,7.30
2023-02-17T18:34:22.759Z,7.20
2023-02-17T18:37:27.371Z,7.40
2023-02-17T18:40:32.636Z,7.40
2023-02-17T18:43:37.261Z,7.40
2023-02-17T18:46:42.137Z,7.20
2023-02-17T18:49:47.486Z,7.40
2023-02-17T18:52:53.584Z,7.40
2023-02-17T18:56:06.243Z,7.40
2023-02-17T18:59:14.584Z,7.40
2023-02-17T19:02:18.855Z,7.30
2023-02-17T19:05:28.427Z,7.30
2023-02-17T19:08:51.389Z,7.20
2023-02-17T19:11:56.058Z,7.40
2023-02-17T19:15:06.578Z,7.40
2023-02-17T19:18:11.557Z,7.30
2023-02-17T19:21:16.407Z,7.30
2023-02-17T19:24:31.219Z,7.30
2023-02-17T19:27:48.199Z,7.40
2023-02-17T19:30:56.395Z,7.50
2023-02-17T19:34:04.439Z,7.30
2023-02-17T19:37:17.166Z,7.40
2023-02-17T19:40:39.837Z,7.40
2023-02-17T19:47:12.399Z,7.40
2023-02-17T19:50:18.912Z,7.30
2023-02-17T19:53:31.695Z,7.50
2023-02-17T19:56:39.175Z,7.40
2023-02-17T19:59:53.083Z,7.30
2023-02-17T20:02:59.338Z,7.30
2023-02-17T20:06:07.227Z,7.40
2023-02-17T20:09:19.115Z,7.50
2023-02-17T20:12:25.487Z,7.40
2023-02-17T20:19:12.875Z,7.30
2023-02-17T20:22:47.759Z,7.30
2023-02-17T20:26:19.533Z,7.30
2023-02-17T20:29:32.716Z,7.30
2023-02-17T20:36:04.021Z,7.30
2023-02-17T20:39:13.823Z,7.30
2023-02-17T20:42:19.016Z,7.40
2023-02-17T20:49:55.452Z,7.20
2023-02-17T20:53:01.433Z,7.20
2023-02-17T21:03:21.017Z,7.10
2023-02-17T21:06:52.359Z,7.10
2023-02-17T21:13:23.088Z,7.10
2023-02-17T21:16:33.291Z,7.00
2023-02-17T21:19:38.104Z,7.10
2023-02-17T21:22:43.245Z,7.00
2023-02-17T21:25:47.862Z,6.90
2023-02-17T21:28:52.737Z,7.00
2023-02-17T21:32:04.164Z,6.90
2023-02-17T21:35:11.013Z,6.90
2023-02-17T21:38:19.780Z,7.00
2023-02-17T21:41:32.833Z,6.90
2023-02-17T21:44:53.461Z,6.90
2023-02-17T21:48:00.236Z,6.70
2023-02-17T21:51:14.089Z,6.80
2023-02-17T21:54:18.973Z,6.80
2023-02-17T21:57:23.752Z,6.70
2023-02-17T22:00:28.449Z,6.70
2023-02-17T22:03:33.256Z,6.80
2023-02-17T22:06:40.313Z,6.70
2023-02-17T22:09:44.818Z,6.60
2023-02-17T22:12:48.750Z,6.70
2023-02-17T22:15:58.258Z,6.70
2023-02-17T22:19:05.356Z,6.60
2023-02-17T22:22:09.884Z,6.60
2023-02-17T22:25:14.365Z,6.60
2023-02-17T22:28:18.812Z,6.70
2023-02-17T22:31:25.672Z,6.50
2023-02-17T22:34:29.879Z,6.60
2023-02-17T22:37:34.596Z,6.50
2023-02-17T22:40:41.085Z,6.60
2023-02-17T22:43:46.933Z,6.50
2023-02-17T22:46:51.031Z,6.60
2023-02-17T22:49:55.549Z,6.50
2023-02-17T22:52:59.984Z,6.60
2023-02-17T22:56:05.597Z,6.50
2023-02-17T22:59:10.312Z,6.50
2023-02-17T23:02:14.946Z,6.50
2023-02-17T23:05:20.181Z,6.50
2023-02-17T23:08:24.603Z,6.50
2023-02-17T23:11:50.981Z,6.50
2023-02-17T23:14:55.711Z,6.50
2023-02-17T23:18:00.053Z,6.40
2023-02-17T23:21:10.557Z,6.40
2023-02-17T23:24:15.975Z,6.40
2023-02-17T23:27:20.585Z,6.30
2023-02-17T23:30:25.393Z,6.40
2023-02-17T23:33:30.080Z,6.30
2023-02-17T23:36:34.716Z,6.40
2023-02-17T23:39:39.009Z,6.30
2023-02-17T23:42:43.302Z,6.30
2023-02-17T23:45:48.512Z,6.40
2023-02-17T23:48:52.703Z,6.30
2023-02-17T23:51:58.296Z,6.30
2023-02-17T23:55:05.974Z,6.30
2023-02-17T23:58:10.730Z,6.30
